createdAt,value
2023-04-02T00:01:23.129Z,99649.67
2023-04-02T00:06:32.356Z,99658.87
2023-04-02T00:11:37.000Z,99664.85
2023-04-02T00:16:40.221Z,99668.83
2023-04-02T00:21:44.226Z,99673.34
2023-04-02T00:26:50.122Z,99676.43
2023-04-02T00:31:53.465Z,99683.05
2023-04-02T00:36:56.116Z,99684.73
2023-04-02T00:42:05.614Z,99691.87
2023-04-02T00:47:22.188Z,99698.65
2023-04-02T00:52:35.227Z,99699.17
2023-04-02T00:57:41.316Z,99704.95
2023-04-02T01:02:43.446Z,99709.95
2023-04-02T01:08:18.239Z,99712.88
2023-04-02T01:13:46.629Z,99719.88
2023-04-02T01:19:01.319Z,99727.46
2023-04-02T01:24:07.012Z,99734.97
2023-04-02T01:29:16.136Z,99739.94
2023-04-02T01:34:21.955Z,99737.86
2023-04-02T01:39:54.283Z,99741.55
2023-04-02T01:45:15.133Z,99746.02
2023-04-02T01:50:21.800Z,99751.32
2023-04-02T01:55:38.518Z,99753.91
2023-04-02T02:00:55.988Z,99762.47
2023-04-02T02:05:59.606Z,99768.77
2023-04-02T02:11:02.381Z,99774.52
2023-04-02T02:16:06.968Z,99777.93
2023-04-02T02:21:10.227Z,99783.10
2023-04-02T02:26:13.131Z,99786.08
2023-04-02T02:31:27.720Z,99790.48
2023-04-02T02:36:56.111Z,99799.45
2023-04-02T02:42:08.424Z,99799.85
2023-04-02T02:47:19.109Z,99799.90
2023-04-02T02:52:44.939Z,99806.81
2023-04-02T02:57:52.861Z,99813.41
2023-04-02T03:02:56.807Z,99819.43
2023-04-02T03:08:02.859Z,99822.92
2023-04-02T03:13:26.649Z,99829.45
2023-04-02T03:18:34.056Z,99838.86
2023-04-02T03:23:42.369Z,99844.98
2023-04-02T03:28:59.643Z,99851.83
2023-04-02T03:34:11.338Z,99860.04
2023-04-02T03:39:26.838Z,99870.86
2023-04-02T03:44:37.823Z,99879.07
2023-04-02T03:49:49.326Z,99885.89
2023-04-02T03:54:53.831Z,99897.99
2023-04-02T04:00:20.724Z,99905.77
2023-04-02T04:05:31.507Z,99913.05
2023-04-02T04:10:35.866Z,99919.16
2023-04-02T04:15:52.362Z,99927.69
2023-04-02T04:20:59.570Z,99933.02
2023-04-02T04:26:09.223Z,99936.34
2023-04-02T04:31:23.927Z,99941.52
2023-04-02T04:36:33.266Z,99946.59
2023-04-02T04:41:38.650Z,99953.23
2023-04-02T04:47:03.535Z,99966.33
2023-04-02T04:52:23.632Z,99976.08
2023-04-02T04:57:31.963Z,99981.64
2023-04-02T05:02:51.123Z,99983.62
2023-04-02T05:07:59.850Z,99996.11
2023-04-02T05:13:10.869Z,100002.09
2023-04-02T05:18:18.940Z,100010.84
2023-04-02T05:23:34.438Z,100017.02
2023-04-02T05:28:52.754Z,100025.17
2023-04-02T05:33:56.063Z,100028.04
2023-04-02T05:38:59.165Z,100030.06
2023-04-02T05:44:16.316Z,100036.15
2023-04-02T05:49:27.640Z,100038.50
2023-04-02T05:54:46.990Z,100044.86
2023-04-02T05:59:56.242Z,100054.59
2023-04-02T06:05:01.805Z,100058.41
2023-04-02T06:10:07.500Z,100066.10
2023-04-02T06:15:21.227Z,100072.20
2023-04-02T06:20:23.000Z,100075.39
2023-04-02T06:25:33.342Z,100080.77
2023-04-02T06:30:40.274Z,100087.19
2023-04-02T06:35:46.149Z,100095.79
2023-04-02T06:41:14.345Z,100099.86
2023-04-02T06:46:40.100Z,100109.71
2023-04-02T06:51:45.601Z,100117.33
2023-04-02T06:56:53.189Z,100119.08
2023-04-02T07:02:03.630Z,100126.23
2023-04-02T07:07:06.226Z,100134.98
2023-04-02T07:12:14.342Z,100146.41
2023-04-02T07:17:20.403Z,100152.27
2023-04-02T07:22:22.397Z,100168.56
2023-04-02T07:27:24.312Z,100170.22
2023-04-02T07:32:26.499Z,100177.84
2023-04-02T07:37:28.517Z,100182.70
2023-04-02T07:42:30.884Z,100188.40
2023-04-02T07:47:32.785Z,100192.70
2023-04-02T07:52:42.332Z,100198.88
2023-04-02T07:57:54.131Z,100205.38
2023-04-02T08:02:55.968Z,100208.68
2023-04-02T08:07:57.987Z,100219.34
2023-04-02T08:12:59.967Z,100225.50
2023-04-02T08:18:01.976Z,100232.79
2023-04-02T08:23:04.032Z,100242.55
2023-04-02T08:28:06.113Z,100250.11
2023-04-02T08:33:08.125Z,100256.61
2023-04-02T08:38:15.500Z,100263.40
2023-04-02T08:43:28.651Z,100271.48
2023-04-02T08:48:33.379Z,100274.77
2023-04-02T08:53:39.254Z,100279.70
2023-04-02T08:58:43.389Z,100284.00
2023-04-02T09:03:47.333Z,100291.52
2023-04-02T09:08:51.746Z,100296.45
2023-04-02T09:13:58.634Z,100308.48
2023-04-02T09:19:01.850Z,100314.76
2023-04-02T09:24:05.246Z,100325.77
2023-04-02T09:29:14.106Z,100333.23
2023-04-02T09:34:33.920Z,100343.37
2023-04-02T09:39:35.878Z,100351.14
2023-04-02T09:44:38.684Z,100360.16
2023-04-02T09:49:41.495Z,100363.85
2023-04-02T09:54:44.584Z,100373.19
2023-04-02T09:59:46.868Z,100377.32
2023-04-02T10:04:51.725Z,100387.02
2023-04-02T10:09:58.809Z,100395.96
2023-04-02T10:15:03.885Z,100402.10
2023-04-02T10:20:29.306Z,100410.09
2023-04-02T10:25:44.009Z,100418.33
2023-04-02T10:31:01.792Z,100421.05
2023-04-02T10:36:40.327Z,100428.70
2023-04-02T10:42:01.382Z,100431.73
2023-04-02T10:47:12.680Z,100439.85
2023-04-02T10:52:39.643Z,100445.29
2023-04-02T10:57:44.406Z,100450.21
2023-04-02T11:03:05.789Z,100456.52
2023-04-02T11:08:11.018Z,100469.33
2023-04-02T11:13:30.376Z,100480.14
2023-04-02T11:18:37.988Z,100489.71
2023-04-02T11:23:56.563Z,100489.62
2023-04-02T11:29:14.105Z,100494.27
2023-04-02T11:34:41.061Z,100505.50
2023-04-02T11:39:53.845Z,100509.92
2023-04-02T11:45:01.097Z,100516.52
2023-04-02T11:50:06.678Z,100528.96
2023-04-02T11:55:17.543Z,100529.17
2023-04-02T12:00:58.736Z,100531.61
2023-04-02T12:06:18.365Z,100529.55
2023-04-02T12:11:33.206Z,100540.77
2023-04-02T12:16:35.495Z,100550.34
2023-04-02T12:21:37.581Z,100556.66
2023-04-02T12:26:42.216Z,100563.50
2023-04-02T12:31:46.345Z,100568.56
2023-04-02T12:37:02.856Z,100573.98
2023-04-02T12:42:05.274Z,100575.23
2023-04-02T12:47:08.333Z,100580.63
2023-04-02T12:52:14.468Z,100589.95
2023-04-02T12:57:20.861Z,100601.41
2023-04-02T13:02:29.809Z,100606.90
2023-04-02T13:07:33.698Z,100614.52
2023-04-02T13:12:39.042Z,100617.02
2023-04-02T13:17:49.933Z,100624.13
2023-04-02T13:22:51.912Z,100632.56
2023-04-02T13:27:54.312Z,100636.52
2023-04-02T13:32:57.137Z,100646.13
2023-04-02T13:38:02.399Z,100651.35
2023-04-02T13:43:06.276Z,100652.56
2023-04-02T13:48:15.523Z,100653.86
2023-04-02T13:53:31.131Z,100655.98
2023-04-02T13:58:33.007Z,100666.25
2023-04-02T14:03:35.293Z,100664.55
2023-04-02T14:09:03.820Z,100666.92
2023-04-02T14:14:11.913Z,100669.09
2023-04-02T14:19:46.152Z,100672.32
2023-04-02T14:25:19.390Z,100684.72
2023-04-02T14:30:51.080Z,100688.71
2023-04-02T14:36:16.590Z,100694.23
2023-04-02T14:41:45.796Z,100695.99
2023-04-02T14:46:49.534Z,100701.37
2023-04-02T14:52:01.549Z,100706.35
2023-04-02T14:57:18.914Z,100716.64
2023-04-02T15:02:44.550Z,100721.20
2023-04-02T15:08:02.881Z,100727.50
2023-04-02T15:13:14.766Z,100730.53
2023-04-02T15:18:17.157Z,100732.86
2023-04-02T15:23:31.123Z,100739.79
2023-04-02T15:28:46.103Z,100746.45
2023-04-02T15:34:20.520Z,100751.73
2023-04-02T15:39:50.886Z,100762.23
2023-04-02T15:45:09.448Z,100764.61
2023-04-02T15:50:48.808Z,100773.35
2023-04-02T15:56:16.386Z,100782.06
2023-04-02T16:01:50.830Z,100789.65
2023-04-02T16:07:17.690Z,100794.16
2023-04-02T16:12:21.212Z,100799.71
2023-04-02T16:17:28.002Z,100809.52
2023-04-02T16:22:33.234Z,100817.94
2023-04-02T16:27:42.722Z,100827.36
2023-04-02T16:32:55.202Z,100840.92
2023-04-02T16:38:15.749Z,100847.70
2023-04-02T16:43:33.600Z,100858.64
2023-04-02T16:48:44.186Z,100869.13
2023-04-02T16:54:02.677Z,100879.55
2023-04-02T16:59:29.863Z,100884.96
2023-04-02T17:04:47.791Z,100891.65
2023-04-02T17:09:53.337Z,100901.14
2023-04-02T17:15:24.787Z,100908.10
2023-04-02T17:20:30.987Z,100919.83
2023-04-02T17:26:01.626Z,100926.80
2023-04-02T17:31:14.063Z,100939.96
2023-04-02T17:36:52.189Z,100947.63
2023-04-02T17:42:02.616Z,100962.10
2023-04-02T17:47:31.271Z,100968.67
2023-04-02T17:52:53.622Z,100980.24
2023-04-02T17:58:42.106Z,100991.34
2023-04-02T18:03:59.658Z,101001.48
2023-04-02T18:09:17.690Z,101010.30
2023-04-02T18:14:48.962Z,101018.59
2023-04-02T18:20:07.779Z,101029.23
2023-04-02T18:25:25.568Z,101033.95
2023-04-02T18:30:46.744Z,101044.16
2023-04-02T18:36:10.278Z,101051.10
2023-04-02T18:41:42.924Z,101058.60
2023-04-02T18:46:57.527Z,101066.50
2023-04-02T18:52:19.420Z,101072.30
2023-04-02T18:57:35.798Z,101082.27
2023-04-02T19:02:51.058Z,101085.78
2023-04-02T19:08:02.439Z,101092.27
2023-04-02T19:13:14.909Z,101091.03
2023-04-02T19:18:49.589Z,101098.45
2023-04-02T19:24:22.697Z,101101.08
2023-04-02T19:29:31.131Z,101111.61
2023-04-02T19:34:48.067Z,101116.69
2023-04-02T19:39:57.227Z,101123.66
2023-04-02T19:45:00.729Z,101135.04
2023-04-02T19:50:04.802Z,101139.77
2023-04-02T19:55:08.061Z,101147.96
2023-04-02T20:00:14.550Z,101154.04
2023-04-02T20:05:16.432Z,101159.41
2023-04-02T20:10:21.911Z,101164.73
2023-04-02T20:15:25.396Z,101169.86
2023-04-02T20:20:27.993Z,101170.00
2023-04-02T20:25:30.789Z,101181.66
2023-04-02T20:30:33.205Z,101189.73
2023-04-02T20:35:37.497Z,101189.92
2023-04-02T20:40:43.250Z,101192.70
2023-04-02T20:45:54.350Z,101202.81
2023-04-02T20:50:58.036Z,101205.77
2023-04-02T20:56:04.176Z,101209.40
2023-04-02T21:01:11.709Z,101214.30
2023-04-02T21:06:16.728Z,101223.17
2023-04-02T21:11:21.527Z,101225.35
2023-04-02T21:16:29.165Z,101236.11
2023-04-02T21:21:31.909Z,101242.69
2023-04-02T21:26:38.106Z,101246.52
2023-04-02T21:31:42.250Z,101251.94
2023-04-02T21:36:46.429Z,101256.02
2023-04-02T21:41:50.772Z,101259.73
2023-04-02T21:46:54.097Z,101265.16
2023-04-02T21:51:56.360Z,101269.75
2023-04-02T21:56:58.349Z,101269.83
2023-04-02T22:02:00.485Z,101271.19
2023-04-02T22:07:02.393Z,101273.79
2023-04-02T22:12:07.355Z,101276.10
2023-04-02T22:17:09.140Z,101284.20
2023-04-02T22:22:10.892Z,101289.61
2023-04-02T22:27:12.667Z,101292.42
2023-04-02T22:32:14.438Z,101291.36
2023-04-02T22:37:16.420Z,101289.63
2023-04-02T22:42:18.191Z,101291.40
2023-04-02T22:47:20.074Z,101294.41
2023-04-02T22:52:21.989Z,101300.79
2023-04-02T22:57:24.987Z,101304.54
2023-04-02T23:02:27.176Z,101308.97
2023-04-02T23:07:29.425Z,101313.53
2023-04-02T23:12:31.707Z,101319.98
2023-04-02T23:17:35.433Z,101320.27
2023-04-02T23:22:37.918Z,101321.17
2023-04-02T23:27:40.024Z,101320.88
2023-04-02T23:32:41.794Z,101324.31
2023-04-02T23:37:43.551Z,101321.48
2023-04-02T23:42:45.326Z,101317.14
2023-04-02T23:47:47.223Z,101320.94
2023-04-02T23:52:49.190Z,101319.80
2023-04-02T23:57:51.411Z,101325.94
